Time;durP1;ratioP1;P1;durP2;ratioP2;P2;SDS_P1;SDS_P2;PMS_P1;PMS_P2;Temp;Humidity;BMP_temperature;BMP_pressure;BME280_temperature;BME280_humidity;BME280_pressure;Samples;Min_cycle;Max_cycle;Signal;HPM_P1;HPM_P2
2021/04/10 00:00:49;;;;;;;8.82;2.25;;;;;;;9.91;63.09;100346.34;4990023;28;20120;-89
2021/04/10 00:03:14;;;;;;;5.60;1.88;;;;;;;9.82;61.60;100334.69;4994046;28;20022;-89
2021/04/10 00:05:40;;;;;;;10.10;2.55;;;;;;;9.77;61.69;100349.06;4994151;28;20032;-89
2021/04/10 00:08:06;;;;;;;5.75;2.17;;;;;;;9.84;61.06;100342.47;5011930;28;20512;-90
2021/04/10 00:10:32;;;;;;;7.30;1.83;;;;;;;9.92;61.00;100343.63;5011920;28;20105;-89
2021/04/10 00:12:58;;;;;;;5.90;2.05;;;;;;;9.77;59.67;100346.44;4994244;28;20030;-89
2021/04/10 00:15:24;;;;;;;4.30;2.08;;;;;;;9.48;60.51;100334.28;4997187;28;20034;-89
2021/04/10 00:17:49;;;;;;;6.53;2.08;;;;;;;9.75;59.36;100336.03;4992513;28;20499;-89
2021/04/10 00:20:18;;;;;;;6.28;1.40;;;;;;;9.56;59.17;100338.16;4975122;28;20030;-89
2021/04/10 00:22:44;;;;;;;8.05;2.30;;;;;;;9.68;57.54;100325.13;4974828;28;20034;-89
2021/04/10 00:25:11;;;;;;;11.15;2.05;;;;;;;9.64;59.54;100338.53;4992131;28;20169;-89
2021/04/10 00:27:37;;;;;;;5.63;2.17;;;;;;;9.60;59.50;100329.19;4974599;28;20014;-89
2021/04/10 00:30:04;;;;;;;7.63;1.98;;;;;;;9.39;58.21;100324.38;4985852;28;20117;-89
2021/04/10 00:32:30;;;;;;;4.40;1.33;;;;;;;9.41;57.76;100332.16;5000581;28;20628;-89
2021/04/10 07:59:28;;;;;;;23.08;11.18;;;;;;;9.27;70.19;100310.28;5067909;28;20360;-89
2021/04/10 08:01:54;;;;;;;16.27;11.77;;;;;;;9.33;69.26;100311.69;5068777;28;20032;-90
2021/04/10 08:04:20;;;;;;;17.30;11.90;;;;;;;9.69;67.31;100307.59;5067060;28;20035;-89
2021/04/10 08:06:58;;;;;;;21.35;12.35;;;;;;;9.45;68.11;100313.50;5068964;28;20479;-89
2021/04/10 08:09:31;;;;;;;18.13;11.27;;;;;;;9.48;68.10;100313.31;5047734;28;20029;-90
2021/04/10 08:11:57;;;;;;;17.52;11.45;;;;;;;9.39;68.54;100323.56;5038359;28;20036;-89
2021/04/10 08:14:23;;;;;;;15.23;10.93;;;;;;;9.50;68.10;100323.72;5027705;28;20032;-90
2021/04/10 08:16:51;;;;;;;20.95;12.07;;;;;;;9.76;67.18;100318.53;5027531;28;20026;-89
2021/04/10 08:19:26;;;;;;;25.58;13.82;;;;;;;9.57;67.60;100319.72;5030225;28;20034;-90
2021/04/10 08:21:53;;;;;;;20.70;11.80;;;;;;;10.06;66.10;100326.16;5034042;28;20392;-89
2021/04/10 08:24:21;;;;;;;21.63;11.82;;;;;;;10.16;66.60;100323.75;5033073;28;20021;-89
2021/04/10 08:26:58;;;;;;;21.60;12.38;;;;;;;10.13;64.56;100328.25;5039888;28;20052;-89
2021/04/10 08:29:24;;;;;;;21.55;11.82;;;;;;;10.49;64.99;100316.22;5029590;28;20029;-89
2021/04/10 08:31:50;;;;;;;22.30;11.23;;;;;;;10.64;63.28;100322.22;5029768;28;20018;-90
2021/04/10 08:34:16;;;;;;;20.30;13.18;;;;;;;10.12;65.24;100320.47;5032226;28;20111;-90
2021/04/10 08:36:46;;;;;;;21.52;12.23;;;;;;;10.85;64.34;100321.66;5033194;28;20468;-89
2021/04/10 08:39:14;;;;;;;18.85;12.32;;;;;;;10.91;62.95;100326.47;5036951;28;20052;-89
2021/04/10 08:41:42;;;;;;;18.25;11.45;;;;;;;11.47;61.01;100324.19;5052700;28;20044;-89
2021/04/10 08:44:11;;;;;;;26.95;13.80;;;;;;;11.10;61.48;100328.63;5067902;28;20104;-89
2021/04/10 08:46:37;;;;;;;20.05;12.75;;;;;;;11.17;62.10;100326.41;5058739;28;20080;-91
2021/04/10 08:49:04;;;;;;;25.20;12.80;;;;;;;11.04;62.01;100327.28;5062545;28;20021;-91
2021/04/10 08:51:34;;;;;;;24.83;12.05;;;;;;;11.51;60.34;100335.28;5047252;28;20032;-92
2021/04/10 08:54:01;;;;;;;20.17;11.32;;;;;;;11.55;60.19;100334.13;5062412;28;20060;-92
2021/04/10 08:56:28;;;;;;;17.58;11.18;;;;;;;11.52;59.77;100332.56;5060501;28;20104;-91
2021/04/10 08:59:11;;;;;;;12.88;9.35;;;;;;;12.05;58.84;100332.19;5045370;28;20025;-91
2021/04/10 09:01:39;;;;;;;17.23;10.68;;;;;;;11.94;58.83;100332.16;5031983;28;20113;-91
2021/04/10 09:04:05;;;;;;;17.95;11.02;;;;;;;12.23;56.75;100326.50;5043564;28;20021;-91
2021/04/10 09:06:31;;;;;;;29.08;11.93;;;;;;;12.00;57.50;100336.13;5042917;28;20056;-91
2021/04/10 09:09:11;;;;;;;19.40;10.98;;;;;;;11.63;59.26;100325.66;5043129;28;20351;-90
2021/04/10 09:11:45;;;;;;;16.83;11.73;;;;;;;11.64;59.92;100324.72;5028772;28;20040;-92
2021/04/10 09:14:13;;;;;;;18.00;10.95;;;;;;;12.02;59.17;100319.25;5032637;28;20096;-92
2021/04/10 09:16:48;;;;;;;16.23;10.55;;;;;;;11.76;59.65;100326.44;5021925;28;20392;-91
2021/04/10 09:19:15;;;;;;;21.20;11.65;;;;;;;11.94;58.25;100320.81;5035400;23;20457;-88
2021/04/10 09:21:53;;;;;;;19.33;11.15;;;;;;;11.63;59.81;100333.56;5019827;28;20045;-90
2021/04/10 09:24:36;;;;;;;23.75;12.05;;;;;;;11.87;60.12;100334.38;5019587;28;20061;-88
2021/04/10 09:27:21;;;;;;;17.58;10.10;;;;;;;12.09;58.86;100328.38;5011253;28;20135;-87
2021/04/10 09:29:57;;;;;;;14.90;11.18;;;;;;;12.22;59.05;100336.19;4990488;28;20030;-87
2021/04/10 09:32:35;;;;;;;20.73;12.80;;;;;;;12.35;56.82;100322.09;4987506;28;20030;-87
2021/04/10 09:35:21;;;;;;;18.45;11.73;;;;;;;12.59;57.42;100333.34;4987150;28;20038;-88
2021/04/10 09:37:49;;;;;;;18.42;11.70;;;;;;;12.47;58.75;100324.59;4993192;28;20034;-88
2021/04/10 09:40:21;;;;;;;22.05;11.85;;;;;;;12.63;56.54;100320.78;5002882;28;20038;-91
2021/04/10 09:42:53;;;;;;;16.23;10.45;;;;;;;13.17;55.15;100327.09;4986186;28;20597;-87
2021/04/10 09:45:20;;;;;;;17.23;11.57;;;;;;;13.33;56.63;100332.84;4992769;28;20026;-88
2021/04/10 09:47:58;;;;;;;14.32;10.15;;;;;;;13.76;54.63;100317.94;4980337;28;20027;-86
2021/04/10 09:50:31;;;;;;;19.45;9.75;;;;;;;14.31;52.08;100328.31;4980539;28;20031;-87
2021/04/10 09:53:02;;;;;;;17.58;9.57;;;;;;;15.00;51.40;100320.56;4975112;28;20484;-87
2021/04/10 09:55:30;;;;;;;13.20;9.17;;;;;;;16.47;46.52;100321.44;4981312;28;20390;-86
2021/04/10 09:58:01;;;;;;;19.38;11.18;;;;;;;16.66;47.62;100321.34;4989550;28;20299;-86
2021/04/10 10:00:31;;;;;;;18.07;9.63;;;;;;;16.67;46.59;100322.19;4989145;28;20057;-86
2021/04/10 10:02:58;;;;;;;14.30;9.02;;;;;;;18.23;43.86;100316.66;4984761;28;20081;-91
2021/04/10 10:05:29;;;;;;;14.93;8.93;;;;;;;19.53;39.93;100314.69;4991205;28;20014;-92
2021/04/10 10:08:28;;;;;;;12.65;8.68;;;;;;;19.09;39.17;100312.25;5004593;28;20017;-96
2021/04/10 10:10:56;;;;;;;15.45;7.78;;;;;;;18.43;39.66;100309.28;4998161;28;20057;-95
2021/04/10 10:13:30;;;;;;;12.40;8.57;;;;;;;17.82;39.98;100310.16;4989636;28;20026;-94
2021/04/10 10:15:57;;;;;;;15.20;8.18;;;;;;;16.90;40.99;100279.41;5019887;23;20072;-96
2021/04/10 10:18:25;;;;;;;10.38;7.93;;;;;;;16.95;42.85;100320.41;5051173;23;20408;-89
2021/04/10 10:21:10;;;;;;;14.45;8.38;;;;;;;16.71;41.86;100315.63;5014873;28;20071;-90
2021/04/10 10:23:39;;;;;;;15.90;8.80;;;;;;;17.07;40.72;100306.97;5019368;28;20287;-90
2021/04/10 10:26:06;;;;;;;13.07;8.45;;;;;;;16.73;41.72;100315.47;5030386;28;20029;-89
2021/04/10 10:28:33;;;;;;;14.93;7.97;;;;;;;18.40;39.06;100290.16;5022433;28;20396;-90
2021/04/10 10:31:04;;;;;;;14.52;8.95;;;;;;;17.76;39.83;100297.50;5011484;28;20037;-90
2021/04/10 10:33:29;;;;;;;12.60;8.00;;;;;;;17.65;39.17;100301.22;5011851;28;20057;-89
2021/04/10 10:35:55;;;;;;;13.90;9.02;;;;;;;19.52;37.24;100297.03;5012894;28;20290;-91
2021/04/10 10:38:20;;;;;;;18.58;8.63;;;;;;;18.88;37.37;100288.75;5013167;28;20030;-91
2021/04/10 10:40:52;;;;;;;10.75;7.10;;;;;;;19.77;37.34;100297.09;5010543;28;20022;-89
2021/04/10 10:43:18;;;;;;;11.63;7.85;;;;;;;18.83;37.28;100283.91;5012108;28;20439;-90
2021/04/10 10:45:49;;;;;;;12.88;7.50;;;;;;;18.65;37.41;100284.97;5012844;28;20025;-90
2021/04/10 10:48:23;;;;;;;9.98;7.05;;;;;;;19.65;35.55;100283.22;5012721;28;20037;-90
2021/04/10 10:50:51;;;;;;;12.50;7.80;;;;;;;18.58;37.45;100288.28;5012321;28;20025;-91
2021/04/10 10:53:22;;;;;;;13.00;7.53;;;;;;;18.22;37.82;100287.56;5011388;28;20052;-90
2021/04/10 10:56:08;;;;;;;18.40;8.77;;;;;;;17.57;39.93;100285.22;5013565;28;20125;-90
2021/04/10 10:58:35;;;;;;;12.00;6.90;;;;;;;16.97;40.23;100278.66;5012846;28;20038;-90
2021/04/10 11:01:02;;;;;;;9.80;6.32;;;;;;;17.21;38.45;100283.38;5011008;28;20013;-89
2021/04/10 11:03:29;;;;;;;13.30;7.43;;;;;;;16.49;40.57;100281.50;5013853;28;20069;-89
2021/04/10 11:05:55;;;;;;;11.40;6.22;;;;;;;15.91;41.95;100278.06;5028462;28;20017;-90
2021/04/10 11:08:22;;;;;;;9.90;6.57;;;;;;;15.43;43.37;100285.03;5021294;28;20581;-89
2021/04/10 11:10:50;;;;;;;12.10;6.97;;;;;;;15.71;42.89;100284.31;5029568;28;20026;-89
2021/04/10 11:13:17;;;;;;;12.18;6.68;;;;;;;15.49;42.57;100273.03;5012133;28;20030;-89
2021/04/10 11:15:47;;;;;;;10.02;6.97;;;;;;;15.29;43.65;100274.03;5011279;28;20057;-89
2021/04/10 11:18:30;;;;;;;11.65;6.57;;;;;;;15.93;42.84;100280.56;5011823;28;20038;-90
2021/04/10 11:21:27;;;;;;;14.00;6.80;;;;;;;15.91;43.29;100283.34;5020120;28;20025;-89
2021/04/10 11:23:58;;;;;;;11.32;6.50;;;;;;;15.51;44.23;100286.97;5011629;28;20412;-89
2021/04/10 11:26:42;;;;;;;10.03;5.80;;;;;;;16.11;41.21;100286.78;5011560;28;20030;-88
2021/04/10 11:29:13;;;;;;;7.95;5.60;;;;;;;15.85;42.06;100292.69;4992281;28;20520;-89
2021/04/10 11:31:38;;;;;;;9.10;5.65;;;;;;;16.31;41.01;100282.31;5020861;28;20404;-90
2021/04/10 11:34:42;;;;;;;10.35;5.78;;;;;;;18.03;38.10;100278.81;5009843;28;20026;-90
2021/04/10 11:37:10;;;;;;;11.02;5.45;;;;;;;17.40;39.48;100287.72;5009798;28;20488;-92
2021/04/10 11:39:55;;;;;;;9.73;5.60;;;;;;;17.47;38.92;100279.16;5011072;28;20124;-90
2021/04/10 11:42:38;;;;;;;13.23;5.20;;;;;;;17.38;39.42;100268.47;5004724;28;20033;-90
2021/04/10 11:45:07;;;;;;;8.90;4.90;;;;;;;16.86;39.42;100276.22;5011440;28;20037;-91
2021/04/10 11:47:34;;;;;;;11.10;6.22;;;;;;;16.44;40.49;100272.19;5011542;28;20057;-91
2021/04/10 11:50:10;;;;;;;11.20;6.07;;;;;;;16.41;40.79;100274.28;5010503;28;20496;-90
2021/04/10 11:52:36;;;;;;;13.50;5.10;;;;;;;16.71;40.47;100269.72;5004042;28;20026;-90
2021/04/10 11:55:06;;;;;;;13.93;5.40;;;;;;;18.07;39.09;100262.56;5011804;28;20029;-90
2021/04/10 11:57:37;;;;;;;10.05;4.72;;;;;;;18.82;36.51;100262.81;5009374;28;20038;-90
2021/04/10 12:00:13;;;;;;;9.48;4.40;;;;;;;20.11;34.13;100254.22;5011877;28;20032;-91
2021/04/10 12:02:45;;;;;;;8.15;4.40;;;;;;;21.37;31.98;100253.31;5012161;28;20076;-91
2021/04/10 12:05:21;;;;;;;10.00;4.50;;;;;;;21.49;30.75;100250.28;5010825;28;20134;-91
2021/04/10 12:08:25;;;;;;;7.70;4.22;;;;;;;22.15;30.43;100247.81;5004614;28;20025;-91
2021/04/10 12:10:56;;;;;;;6.32;3.72;;;;;;;22.05;29.07;100248.06;5004609;28;20488;-92
2021/04/10 12:38:23;;;;;;;8.13;4.57;;;;;;;22.47;27.74;100235.94;5069978;27;20387;-92
2021/04/10 12:40:49;;;;;;;7.25;4.07;;;;;;;23.09;27.35;100233.81;5068258;28;20475;-92
2021/04/10 12:43:14;;;;;;;6.32;4.47;;;;;;;22.04;28.97;100233.06;5063188;28;20040;-92
2021/04/10 12:45:39;;;;;;;8.85;4.95;;;;;;;21.33;29.88;100228.00;5053794;28;20079;-91
2021/04/10 12:48:05;;;;;;;8.80;3.58;;;;;;;21.31;30.04;100227.34;5048888;28;20029;-93
2021/04/10 12:50:30;;;;;;;9.73;4.35;;;;;;;20.90;30.99;100234.78;5060752;28;20039;-92
2021/04/10 12:52:56;;;;;;;7.50;3.78;;;;;;;20.62;30.66;100237.94;5058311;28;20036;-92
2021/04/10 12:55:25;;;;;;;8.55;4.35;;;;;;;20.78;30.03;100237.03;5043169;28;20037;-91
2021/04/10 12:57:50;;;;;;;10.75;5.05;;;;;;;20.36;31.65;100232.84;5042283;28;20120;-91
2021/04/10 13:00:16;;;;;;;7.97;4.60;;;;;;;19.98;32.25;100229.94;5063206;28;20103;-92
2021/04/10 13:02:41;;;;;;;7.68;4.00;;;;;;;19.86;31.87;100226.78;5059794;28;20056;-92
2021/04/10 13:05:07;;;;;;;7.45;3.83;;;;;;;19.30;32.98;100226.63;5046353;28;20144;-91
2021/04/10 13:07:33;;;;;;;5.97;3.70;;;;;;;19.06;31.83;100239.91;5033218;28;20025;-92
2021/04/10 13:09:58;;;;;;;6.45;3.80;;;;;;;18.11;35.58;100224.91;5048299;28;20090;-93
2021/04/10 13:12:24;;;;;;;6.97;2.90;;;;;;;17.49;36.51;100234.72;5068188;28;20383;-93
2021/04/10 13:14:52;;;;;;;5.90;3.05;;;;;;;17.19;36.66;100232.28;5053777;28;20399;-91
2021/04/10 13:17:18;;;;;;;9.20;3.33;;;;;;;15.78;38.12;100241.31;5046590;28;20064;-93
2021/04/10 13:19:43;;;;;;;5.10;2.78;;;;;;;15.98;36.96;100222.72;5077547;22;20048;-90
2021/04/10 13:22:09;;;;;;;6.45;3.17;;;;;;;15.66;37.80;100227.34;5070943;28;20032;-90
2021/04/10 13:24:34;;;;;;;5.80;3.35;;;;;;;15.34;38.97;100225.00;5065824;28;20032;-90
2021/04/10 13:27:00;;;;;;;5.97;3.45;;;;;;;14.99;41.39;100217.63;5068550;28;20056;-89
2021/04/10 13:29:26;;;;;;;6.50;4.35;;;;;;;14.38;43.75;100223.84;5069534;28;20123;-90
2021/04/10 13:31:51;;;;;;;9.20;4.20;;;;;;;14.32;43.84;100216.44;5085001;28;20020;-90
2021/04/10 13:34:17;;;;;;;8.98;4.00;;;;;;;14.54;43.97;100223.34;5079901;28;20036;-90
2021/04/10 13:36:44;;;;;;;7.70;4.22;;;;;;;14.18;44.76;100218.47;5082267;28;20004;-88
2021/04/10 13:39:10;;;;;;;10.80;5.03;;;;;;;13.67;46.57;100203.47;5101549;28;20025;-91
2021/04/10 13:41:37;;;;;;;8.32;4.38;;;;;;;13.76;47.20;100221.13;5086925;28;20029;-89
2021/04/10 13:44:06;;;;;;;8.57;4.30;;;;;;;13.46;49.47;100224.53;5073681;28;20104;-91
2021/04/10 13:46:35;;;;;;;13.05;4.85;;;;;;;12.69;53.63;100223.66;5083676;28;20031;-89
2021/04/10 13:49:02;;;;;;;11.30;4.65;;;;;;;12.91;55.96;100237.75;5079516;28;20083;-88
2021/04/10 13:51:28;;;;;;;12.05;4.75;;;;;;;12.60;57.76;100219.16;5059159;28;20155;-91
2021/04/10 13:53:53;;;;;;;10.10;5.75;;;;;;;12.98;58.34;100225.78;5056013;28;20491;-89
2021/04/10 13:56:19;;;;;;;9.65;5.38;;;;;;;13.09;58.68;100222.25;5054284;28;20063;-89
2021/04/10 13:58:46;;;;;;;9.90;5.50;;;;;;;13.06;59.93;100226.00;5057176;28;20522;-89
2021/04/10 14:01:12;;;;;;;10.70;5.28;;;;;;;13.22;59.37;100225.56;5076025;28;20055;-90
2021/04/10 14:03:39;;;;;;;10.32;5.05;;;;;;;12.88;59.84;100222.22;5065366;28;20103;-89
2021/04/10 14:06:10;;;;;;;9.07;5.00;;;;;;;12.66;62.50;100218.66;5056762;28;20025;-90
2021/04/10 14:08:35;;;;;;;10.23;5.30;;;;;;;12.24;61.62;100228.13;5058058;28;20044;-91
2021/04/10 14:11:01;;;;;;;8.57;5.32;;;;;;;12.37;63.13;100217.50;5056199;28;20618;-90
2021/04/10 14:13:26;;;;;;;9.18;4.28;;;;;;;12.34;62.73;100228.25;5056476;28;20028;-89
2021/04/10 14:15:52;;;;;;;9.85;5.03;;;;;;;12.08;60.84;100218.81;5056519;28;20112;-88
2021/04/10 14:18:19;;;;;;;11.25;4.57;;;;;;;12.25;61.17;100224.56;5100002;22;20044;-91
2021/04/10 14:20:46;;;;;;;10.30;4.30;;;;;;;12.43;61.20;100217.84;5053587;28;20056;-94
2021/04/10 14:23:20;;;;;;;7.45;3.88;;;;;;;12.67;58.25;100220.31;5045185;28;20071;-93
2021/04/10 14:25:47;;;;;;;11.10;5.30;;;;;;;12.63;59.14;100226.78;5049552;28;20100;-92
2021/04/10 14:28:13;;;;;;;6.72;4.20;;;;;;;12.80;55.92;100224.63;5053309;28;20029;-93
2021/04/10 14:30:41;;;;;;;10.85;4.97;;;;;;;12.63;56.98;100229.44;5044391;28;20076;-92
2021/04/10 14:33:11;;;;;;;8.75;4.15;;;;;;;12.49;58.38;100233.16;5038830;28;20025;-92
2021/04/10 14:35:49;;;;;;;7.63;3.05;;;;;;;12.23;56.33;100231.75;5047037;28;20029;-91
2021/04/10 14:38:15;;;;;;;5.88;3.53;;;;;;;12.47;55.75;100219.28;5032424;28;20087;-92
2021/04/10 14:40:41;;;;;;;8.35;2.92;;;;;;;12.85;56.58;100227.72;5038278;28;20026;-93
2021/04/10 14:43:08;;;;;;;3.45;2.65;;;;;;;12.56;54.45;100227.41;5049371;28;20387;-91
2021/04/10 14:45:36;;;;;;;3.15;2.72;;;;;;;13.02;56.58;100224.56;5045653;28;20113;-92
2021/04/10 14:48:02;;;;;;;8.10;3.10;;;;;;;13.18;57.52;100218.06;5037356;28;20467;-94
2021/04/10 14:50:30;;;;;;;3.83;3.20;;;;;;;13.20;53.21;100224.03;5038187;28;20538;-91
2021/04/10 14:52:56;;;;;;;9.57;4.07;;;;;;;12.61;57.12;100220.81;5034404;28;20022;-92
2021/04/10 14:55:23;;;;;;;5.47;3.10;;;;;;;13.10;56.26;100230.03;5049559;28;20033;-93
2021/04/10 14:57:54;;;;;;;5.35;3.13;;;;;;;12.98;55.92;100222.31;5046005;28;20082;-91
2021/04/10 15:00:21;;;;;;;4.60;2.97;;;;;;;12.73;56.88;100231.34;5031980;28;20103;-91
2021/04/10 15:02:47;;;;;;;4.43;2.97;;;;;;;12.57;56.78;100227.28;5051368;28;20040;-91
2021/04/10 15:05:15;;;;;;;6.15;3.25;;;;;;;12.33;56.12;100213.44;5035908;28;20399;-90
2021/04/10 15:07:43;;;;;;;5.93;3.60;;;;;;;12.16;56.85;100215.56;5032515;28;20168;-90
2021/04/10 15:10:09;;;;;;;4.35;3.10;;;;;;;11.89;58.00;100219.38;5047935;28;20171;-90
2021/04/10 15:12:34;;;;;;;7.40;3.45;;;;;;;11.42;61.89;100210.63;5053053;28;20052;-91
2021/04/10 15:15:00;;;;;;;6.05;3.33;;;;;;;10.98;64.06;100212.13;5044273;28;20467;-91
2021/04/10 15:17:25;;;;;;;7.43;3.28;;;;;;;11.29;61.57;100199.34;5035365;28;20033;-93
2021/04/10 15:19:51;;;;;;;8.35;3.80;;;;;;;11.61;63.22;100198.72;5045026;28;20291;-92
2021/04/10 15:22:16;;;;;;;8.18;3.30;;;;;;;11.78;64.37;100208.81;5028624;28;20028;-93
2021/04/10 15:24:41;;;;;;;5.95;3.30;;;;;;;11.89;64.55;100208.88;5033451;28;20107;-93
2021/04/10 15:27:08;;;;;;;5.57;2.88;;;;;;;11.87;64.98;100202.84;5042020;28;20025;-91
2021/04/10 15:29:33;;;;;;;6.93;3.00;;;;;;;12.01;66.27;100203.63;5046992;28;20022;-91
2021/04/10 15:31:59;;;;;;;5.93;2.70;;;;;;;12.15;65.35;100198.13;5024648;28;20026;-92
2021/04/10 15:34:25;;;;;;;6.10;2.80;;;;;;;12.27;66.02;100196.31;5033312;28;20125;-93
2021/04/10 15:36:51;;;;;;;4.38;2.30;;;;;;;12.55;63.59;100189.69;5046560;28;20065;-92
2021/04/10 15:39:17;;;;;;;6.38;2.83;;;;;;;12.68;62.86;100190.41;5038007;28;20084;-92
2021/04/10 15:41:44;;;;;;;5.45;2.63;;;;;;;12.04;60.53;100179.69;5036670;28;20043;-91
2021/04/10 15:44:11;;;;;;;4.70;2.63;;;;;;;12.40;60.83;100175.97;5047094;28;20044;-92
2021/04/10 15:46:37;;;;;;;5.57;2.80;;;;;;;12.51;61.88;100172.47;5047453;28;20025;-91
2021/04/10 15:49:03;;;;;;;7.07;3.60;;;;;;;12.80;61.07;100177.22;5035791;28;20029;-93
2021/04/10 15:51:28;;;;;;;7.43;2.90;;;;;;;12.82;61.12;100173.47;5033648;28;20034;-92
2021/04/10 15:53:55;;;;;;;6.22;3.13;;;;;;;12.25;59.81;100175.38;5031493;28;20092;-92
2021/04/10 15:56:20;;;;;;;4.70;3.05;;;;;;;12.56;59.22;100180.84;5035032;28;20025;-93
2021/04/10 15:58:47;;;;;;;5.95;3.10;;;;;;;12.50;60.12;100168.19;5043759;28;20080;-93
2021/04/10 16:01:13;;;;;;;4.03;2.72;;;;;;;12.50;58.66;100163.75;5040539;28;20026;-92
2021/04/10 16:03:39;;;;;;;6.00;3.65;;;;;;;12.36;60.56;100187.72;5039176;28;20107;-93
2021/04/10 16:06:05;;;;;;;7.38;3.20;;;;;;;12.38;58.92;100192.81;5042110;28;20108;-92
2021/04/10 16:08:31;;;;;;;4.68;3.10;;;;;;;12.41;60.21;100182.06;5046370;28;20487;-91
2021/04/10 16:10:56;;;;;;;3.53;3.22;;;;;;;12.09;59.07;100196.78;5044578;28;20039;-90
2021/04/10 16:13:22;;;;;;;5.43;3.03;;;;;;;12.13;60.27;100197.41;5030672;28;20021;-92
2021/04/10 16:15:48;;;;;;;4.22;2.53;;;;;;;12.21;57.17;100202.91;5032766;28;20391;-92
2021/04/10 16:18:15;;;;;;;4.35;2.88;;;;;;;12.08;57.05;100207.44;5036140;28;20448;-91
2021/04/10 16:20:40;;;;;;;4.30;2.63;;;;;;;12.15;58.88;100207.81;5035127;28;20033;-92
2021/04/10 16:23:06;;;;;;;3.47;2.38;;;;;;;11.64;57.98;100204.59;5012086;28;20091;-92
2021/04/10 16:25:31;;;;;;;2.65;2.35;;;;;;;11.95;58.17;100204.94;5016870;28;20497;-92
2021/04/10 16:27:57;;;;;;;4.28;2.60;;;;;;;11.52;59.75;100208.16;5040026;28;20499;-91
2021/04/10 16:30:25;;;;;;;5.22;2.60;;;;;;;11.79;58.80;100207.00;5036882;28;20032;-92
2021/04/10 16:32:51;;;;;;;3.53;2.33;;;;;;;11.81;58.79;100216.47;5039136;28;20076;-93
2021/04/10 16:35:17;;;;;;;2.55;1.85;;;;;;;11.81;57.59;100211.22;5031778;28;20033;-91
2021/04/10 16:37:43;;;;;;;4.63;2.30;;;;;;;11.99;56.28;100206.38;5035794;28;20040;-92
2021/04/10 16:40:09;;;;;;;3.60;2.67;;;;;;;11.82;57.82;100207.59;5041144;28;20029;-92
2021/04/10 16:42:35;;;;;;;3.10;2.50;;;;;;;11.48;59.58;100215.41;5031480;28;20108;-91
2021/04/10 16:45:00;;;;;;;4.30;2.33;;;;;;;10.80;58.90;100213.44;5047550;28;20108;-92
2021/04/10 16:47:26;;;;;;;4.03;2.25;;;;;;;11.13;58.17;100219.81;5034300;28;20440;-91
2021/04/10 16:49:51;;;;;;;3.97;2.30;;;;;;;10.96;57.65;100224.53;5031046;28;20021;-91
2021/04/10 16:52:17;;;;;;;2.92;2.25;;;;;;;10.76;58.06;100220.69;5030052;28;20084;-92
2021/04/10 16:54:42;;;;;;;3.22;2.40;;;;;;;10.89;58.00;100218.88;5036760;28;20013;-91
2021/04/10 16:57:08;;;;;;;4.82;2.08;;;;;;;10.43;58.98;100229.19;5032189;28;20018;-92
2021/04/10 16:59:34;;;;;;;3.35;2.33;;;;;;;10.37;57.96;100235.72;5032112;28;20113;-93
2021/04/10 17:01:59;;;;;;;4.43;2.20;;;;;;;10.24;58.21;100222.56;5030226;28;20077;-92
2021/04/10 17:04:25;;;;;;;2.65;2.13;;;;;;;10.41;58.29;100220.59;5023466;28;20026;-96
2021/04/10 17:06:50;;;;;;;2.72;2.20;;;;;;;10.41;59.73;100217.97;5023319;28;20024;-92
2021/04/10 17:09:15;;;;;;;2.25;2.05;;;;;;;10.46;59.67;100226.34;5031107;28;20083;-93
2021/04/10 17:11:41;;;;;;;3.88;2.75;;;;;;;10.26;59.43;100231.16;5029099;28;20057;-93
2021/04/10 17:14:07;;;;;;;2.88;2.42;;;;;;;10.05;60.03;100232.63;5029927;28;20014;-92
2021/04/10 17:16:33;;;;;;;3.90;2.50;;;;;;;9.80;60.88;100244.81;5029052;28;20022;-95
2021/04/10 17:18:59;;;;;;;4.47;2.70;;;;;;;9.49;62.40;100240.75;5030469;28;20037;-92
2021/04/10 17:21:25;;;;;;;4.18;2.75;;;;;;;9.22;62.95;100244.25;5031487;28;20475;-92
2021/04/10 17:23:50;;;;;;;3.08;2.65;;;;;;;9.63;61.97;100232.81;5031894;28;20056;-92
2021/04/10 17:26:16;;;;;;;6.85;2.83;;;;;;;9.53;62.36;100245.69;5035034;28;20029;-93
2021/04/10 17:28:41;;;;;;;5.15;3.00;;;;;;;9.18;63.42;100248.00;5032983;28;20383;-94
2021/04/10 17:31:07;;;;;;;4.88;2.90;;;;;;;9.43;62.69;100244.63;5033425;28;20021;-91
2021/04/10 17:33:33;;;;;;;5.10;2.70;;;;;;;9.63;62.12;100255.56;5031421;28;20022;-89
2021/04/10 17:36:00;;;;;;;6.47;3.30;;;;;;;9.62;61.89;100251.28;5034892;28;20143;-91
2021/04/10 17:38:27;;;;;;;3.78;2.75;;;;;;;9.56;62.15;100259.53;5034893;28;20049;-94
2021/04/10 17:40:53;;;;;;;5.40;2.80;;;;;;;9.47;61.40;100259.19;5034303;28;20025;-94
2021/04/10 17:43:18;;;;;;;4.28;2.78;;;;;;;9.39;61.35;100255.41;5033551;28;20025;-94
2021/04/10 17:45:44;;;;;;;7.47;4.20;;;;;;;9.77;61.38;100258.09;5031145;28;20096;-93
2021/04/10 17:48:11;;;;;;;12.00;4.07;;;;;;;9.72;62.24;100265.47;5038263;28;20107;-93
2021/04/10 17:50:38;;;;;;;5.43;3.30;;;;;;;9.75;60.92;100274.91;5031842;28;20023;-91
2021/04/10 17:53:04;;;;;;;3.97;2.83;;;;;;;9.85;61.16;100268.09;5041811;28;20071;-92
2021/04/10 17:55:29;;;;;;;5.80;3.00;;;;;;;9.85;60.27;100274.19;5038508;28;20033;-92
2021/04/10 17:57:55;;;;;;;5.45;3.13;;;;;;;9.81;62.06;100285.81;5052747;28;20040;-96
2021/04/10 18:00:25;;;;;;;3.58;2.97;;;;;;;9.87;61.42;100288.03;5044983;28;20463;-95
2021/04/10 18:02:51;;;;;;;6.47;3.30;;;;;;;9.79;60.57;100285.06;5037035;28;20025;-96
2021/04/10 18:05:17;;;;;;;5.47;3.13;;;;;;;9.36;63.43;100287.06;5034758;28;20017;-95
2021/04/10 18:07:43;;;;;;;7.53;3.58;;;;;;;9.72;59.74;100287.28;5033170;28;20025;-94
2021/04/10 18:10:09;;;;;;;11.20;3.10;;;;;;;9.39;60.70;100303.41;5033774;28;20079;-95
2021/04/10 18:12:34;;;;;;;4.32;2.88;;;;;;;9.52;60.04;100304.31;5033441;28;20120;-96
2021/04/10 18:15:00;;;;;;;4.57;2.88;;;;;;;9.35;61.83;100294.06;5039738;28;20112;-94
2021/04/10 18:17:26;;;;;;;6.53;3.13;;;;;;;9.39;61.21;100298.19;5040248;28;20025;-95
2021/04/10 18:19:51;;;;;;;3.78;2.58;;;;;;;9.31;61.17;100300.47;5048067;28;20112;-96
2021/04/10 18:22:17;;;;;;;5.63;2.47;;;;;;;9.42;60.69;100300.63;5035298;28;20060;-96
2021/04/10 18:24:42;;;;;;;6.20;3.55;;;;;;;9.41;62.21;100311.19;5040932;28;20551;-96
2021/04/10 18:27:08;;;;;;;3.47;3.00;;;;;;;9.04;63.58;100282.94;5124009;23;20044;-95
2021/04/10 18:29:34;;;;;;;4.93;3.10;;;;;;;9.05;63.76;100308.19;5073019;28;20040;-92
2021/04/10 18:31:59;;;;;;;5.82;3.35;;;;;;;9.40;62.56;100319.97;5053364;28;20593;-91
2021/04/10 18:34:25;;;;;;;5.45;3.97;;;;;;;9.33;63.69;100309.88;5071053;28;20082;-89
2021/04/10 18:36:50;;;;;;;6.60;3.55;;;;;;;9.37;61.43;100317.56;5071946;28;20029;-92
2021/04/10 18:39:16;;;;;;;6.50;3.05;;;;;;;9.24;60.62;100307.03;5054839;28;20123;-91
2021/04/10 18:41:42;;;;;;;5.88;3.30;;;;;;;9.12;62.24;100319.97;5070326;28;20074;-93
2021/04/10 18:44:08;;;;;;;5.32;3.17;;;;;;;9.10;62.32;100323.63;5063492;28;20029;-96
2021/04/10 18:46:34;;;;;;;6.15;3.45;;;;;;;8.92;63.18;100328.22;5070886;28;20054;-94
2021/04/10 18:49:00;;;;;;;7.50;3.28;;;;;;;9.05;62.81;100326.53;5074676;28;20106;-95
2021/04/10 18:51:26;;;;;;;4.78;3.33;;;;;;;9.13;62.22;100333.91;5072182;28;20455;-95
2021/04/10 18:53:52;;;;;;;6.20;3.80;;;;;;;9.20;63.64;100339.59;5067991;28;20031;-96
2021/04/10 18:56:22;;;;;;;3.92;3.15;;;;;;;8.69;64.44;100343.59;5073692;28;20459;-96
2021/04/10 18:58:53;;;;;;;4.97;3.72;;;;;;;8.36;63.82;100353.44;5059945;28;20079;-95
2021/04/10 19:01:20;;;;;;;5.43;3.50;;;;;;;8.71;63.69;100354.81;5063690;28;20025;-95
2021/04/10 19:03:45;;;;;;;7.00;3.35;;;;;;;8.79;62.53;100350.84;5059047;28;20033;-95
2021/04/10 19:06:10;;;;;;;6.18;3.72;;;;;;;9.18;61.45;100352.78;5057258;28;20040;-94
2021/04/10 19:08:36;;;;;;;3.72;3.20;;;;;;;9.15;61.22;100357.41;5059837;28;20074;-96
2021/04/10 19:11:03;;;;;;;6.95;4.35;;;;;;;9.19;62.59;100361.50;5053514;28;20028;-95
2021/04/10 19:13:33;;;;;;;4.32;3.50;;;;;;;9.27;61.10;100361.84;5068990;28;20032;-96
2021/04/10 19:15:59;;;;;;;4.00;3.60;;;;;;;8.99;60.63;100358.34;5068173;28;20037;-96